Time;durP1;ratioP1;P1;durP2;ratioP2;P2;SDS_P1;SDS_P2;PMS_P1;PMS_P2;Temp;Humidity;BMP_temperature;BMP_pressure;BME280_temperature;BME280_humidity;BME280_pressure;Samples;Min_cycle;Max_cycle;Signal;HPM_P1;HPM_P2
2024/03/05 00:01:30;;;;;;;1.13;1.03;;;;;;;;;;4862690;29;20033;-69
2024/03/05 00:03:55;;;;;;;3.00;1.13;;;;;;;;;;4879318;29;20271;-69
2024/03/05 00:06:20;;;;;;;0.73;0.67;;;;;;;;;;4879173;29;20153;-69
2024/03/05 00:08:46;;;;;;;1.10;1.03;;;;;;;;;;4879366;29;20017;-70
2024/03/05 00:11:11;;;;;;;0.73;0.67;;;;;;;;;;4879150;29;20033;-70
2024/03/05 00:13:36;;;;;;;0.80;0.80;;;;;;;;;;4879361;29;20259;-70
2024/03/05 00:16:04;;;;;;;3.97;2.15;;;;;;;;;;4879286;29;20021;-70
2024/03/05 00:18:29;;;;;;;2.70;1.02;;;;;;;;;;4879045;29;20029;-70
2024/03/05 00:20:57;;;;;;;1.80;1.60;;;;;;;;;;4879249;29;20032;-69
2024/03/05 00:23:22;;;;;;;2.97;1.30;;;;;;;;;;4879202;29;20084;-69
2024/03/05 00:25:47;;;;;;;1.42;1.33;;;;;;;;;;4878867;29;20146;-69
2024/03/05 00:28:12;;;;;;;0.90;0.70;;;;;;;;;;4879183;29;20451;-70
2024/03/05 00:30:38;;;;;;;1.00;1.00;;;;;;;;;;4879069;29;20029;-70
2024/03/05 00:33:03;;;;;;;0.47;0.47;;;;;;;;;;4879003;29;20256;-73
2024/03/05 00:35:28;;;;;;;0.20;0.20;;;;;;;;;;4878940;29;20040;-73
2024/03/05 00:37:54;;;;;;;0.20;0.20;;;;;;;;;;4879088;29;20036;-73
2024/03/05 00:40:19;;;;;;;0.25;0.25;;;;;;;;;;4878755;29;20482;-73
2024/03/05 00:42:45;;;;;;;1.03;0.73;;;;;;;;;;4879061;29;20021;-73
2024/03/05 00:45:10;;;;;;;0.35;0.35;;;;;;;;;;4862196;29;20025;-73
2024/03/05 00:47:36;;;;;;;0.00;0.00;;;;;;;;;;4878843;29;20100;-73
2024/03/05 00:50:03;;;;;;;0.73;0.73;;;;;;;;;;4878966;29;20032;-73
2024/03/05 00:52:28;;;;;;;0.10;0.10;;;;;;;;;;4878946;29;20610;-73
2024/03/05 00:54:54;;;;;;;2.38;0.40;;;;;;;;;;4878726;29;20106;-72
2024/03/05 00:57:20;;;;;;;0.17;0.17;;;;;;;;;;4879540;29;20057;-73
2024/03/05 00:59:45;;;;;;;0.68;0.68;;;;;;;;;;4882462;29;20455;-73
2024/03/05 01:02:10;;;;;;;0.57;0.57;;;;;;;;;;4882449;29;20017;-72
2024/03/05 01:04:35;;;;;;;0.30;0.30;;;;;;;;;;4882600;29;20032;-73
2024/03/05 01:07:01;;;;;;;0.52;0.52;;;;;;;;;;4882085;29;20103;-73
2024/03/05 01:09:27;;;;;;;0.60;0.60;;;;;;;;;;4882430;29;20029;-73
2024/03/05 01:11:52;;;;;;;0.40;0.40;;;;;;;;;;4882374;29;20040;-73
2024/03/05 01:14:18;;;;;;;1.02;0.60;;;;;;;;;;4882149;29;20029;-73
2024/03/05 01:16:44;;;;;;;4.47;1.38;;;;;;;;;;4882283;29;20108;-73
2024/03/05 01:19:12;;;;;;;0.57;0.57;;;;;;;;;;4882286;29;20036;-73
2024/03/05 01:21:37;;;;;;;0.13;0.13;;;;;;;;;;4882027;29;20025;-73
2024/03/05 01:24:02;;;;;;;1.90;1.70;;;;;;;;;;4882485;29;20466;-73
2024/03/05 01:26:28;;;;;;;0.55;0.55;;;;;;;;;;4881902;29;20029;-73
2024/03/05 01:28:55;;;;;;;2.85;1.38;;;;;;;;;;4882015;29;20113;-73
2024/03/05 01:31:20;;;;;;;0.73;0.73;;;;;;;;;;4882218;29;20052;-73
2024/03/05 01:33:46;;;;;;;0.40;0.40;;;;;;;;;;4882293;29;20056;-73
2024/03/05 01:36:12;;;;;;;0.30;0.30;;;;;;;;;;4882346;29;20025;-73
2024/03/05 01:38:38;;;;;;;0.10;0.10;;;;;;;;;;4882107;29;20054;-73
2024/03/05 01:41:03;;;;;;;1.23;1.13;;;;;;;;;;4882228;29;20025;-73
2024/03/05 01:43:28;;;;;;;3.03;0.47;;;;;;;;;;4882241;29;20068;-70
2024/03/05 01:45:53;;;;;;;4.03;1.27;;;;;;;;;;4881260;29;20040;-69
2024/03/05 01:48:21;;;;;;;0.75;0.63;;;;;;;;;;4881489;29;20025;-69
2024/03/05 01:50:46;;;;;;;2.00;1.08;;;;;;;;;;4881753;29;20017;-69
2024/03/05 01:53:14;;;;;;;1.25;0.63;;;;;;;;;;4881474;29;20040;-70
2024/03/05 01:55:40;;;;;;;0.80;0.80;;;;;;;;;;4881648;29;20036;-70
2024/03/05 01:58:07;;;;;;;0.45;0.45;;;;;;;;;;4881188;29;20060;-70
2024/03/05 02:00:34;;;;;;;0.55;0.55;;;;;;;;;;4864848;29;20021;-69
2024/03/05 02:03:00;;;;;;;1.25;0.98;;;;;;;;;;4881345;29;20031;-69
2024/03/05 02:05:25;;;;;;;0.45;0.45;;;;;;;;;;4881256;29;20037;-69
2024/03/05 02:07:53;;;;;;;1.70;1.60;;;;;;;;;;4881384;29;20036;-69
2024/03/05 02:10:18;;;;;;;4.65;1.60;;;;;;;;;;4880577;29;20532;-70
2024/03/05 02:12:44;;;;;;;0.10;0.10;;;;;;;;;;4881350;29;20108;-69
2024/03/05 02:15:11;;;;;;;0.80;0.40;;;;;;;;;;4864482;29;20439;-70
2024/03/05 02:17:36;;;;;;;1.00;1.00;;;;;;;;;;4880750;29;20107;-70
2024/03/05 02:20:04;;;;;;;0.57;0.57;;;;;;;;;;4881173;29;20410;-69
2024/03/05 02:22:29;;;;;;;1.10;1.00;;;;;;;;;;4881163;29;20423;-69
2024/03/05 02:24:55;;;;;;;0.50;0.50;;;;;;;;;;4880861;29;20024;-69
2024/03/05 02:27:20;;;;;;;0.10;0.10;;;;;;;;;;4881077;29;20085;-69
2024/03/05 02:29:46;;;;;;;3.10;1.53;;;;;;;;;;4880910;29;20524;-71
2024/03/05 02:32:11;;;;;;;0.00;0.00;;;;;;;;;;4880753;29;20729;-70
2024/03/05 02:34:38;;;;;;;0.47;0.47;;;;;;;;;;4881141;29;20029;-69
2024/03/05 02:37:03;;;;;;;1.90;1.17;;;;;;;;;;4880745;29;20048;-69
2024/03/05 02:39:28;;;;;;;0.10;0.10;;;;;;;;;;4880639;29;20060;-69
2024/03/05 02:41:56;;;;;;;1.70;1.10;;;;;;;;;;4880835;29;20024;-69
2024/03/05 02:44:22;;;;;;;2.38;1.80;;;;;;;;;;4880471;29;20343;-70
2024/03/05 02:46:47;;;;;;;1.00;0.90;;;;;;;;;;4880630;29;20507;-70
2024/03/05 02:49:13;;;;;;;0.85;0.85;;;;;;;;;;4880695;29;20149;-69
2024/03/05 02:51:39;;;;;;;0.30;0.30;;;;;;;;;;4880441;29;20478;-69
2024/03/05 02:54:05;;;;;;;1.05;0.77;;;;;;;;;;4880688;29;20017;-69
2024/03/05 02:56:30;;;;;;;0.55;0.55;;;;;;;;;;4880552;29;20040;-69
2024/03/05 02:58:56;;;;;;;2.90;0.67;;;;;;;;;;4880038;29;20177;-69
2024/03/05 03:01:21;;;;;;;0.67;0.67;;;;;;;;;;4880471;29;20272;-69
2024/03/05 03:03:46;;;;;;;1.10;1.03;;;;;;;;;;4880307;29;20021;-69
2024/03/05 03:06:16;;;;;;;2.73;1.23;;;;;;;;;;4880107;29;20554;-69
2024/03/05 03:08:41;;;;;;;0.73;0.73;;;;;;;;;;4880301;29;20267;-70
2024/03/05 03:11:07;;;;;;;2.15;0.45;;;;;;;;;;4880135;29;20029;-70
2024/03/05 03:13:32;;;;;;;0.82;0.82;;;;;;;;;;4880471;29;20373;-70
2024/03/05 03:15:57;;;;;;;0.85;0.85;;;;;;;;;;4880183;29;20025;-69
2024/03/05 03:18:23;;;;;;;1.05;0.50;;;;;;;;;;4879951;29;20112;-69
2024/03/05 03:20:48;;;;;;;1.03;0.63;;;;;;;;;;4879264;29;20086;-69
2024/03/05 03:23:13;;;;;;;2.60;1.97;;;;;;;;;;4880080;29;20482;-69
2024/03/05 03:25:38;;;;;;;0.80;0.60;;;;;;;;;;4879768;29;20287;-69
2024/03/05 03:28:04;;;;;;;0.53;0.53;;;;;;;;;;4880053;29;20052;-69
2024/03/05 03:30:29;;;;;;;0.63;0.63;;;;;;;;;;4879908;29;20272;-69
2024/03/05 03:32:55;;;;;;;0.40;0.40;;;;;;;;;;4879689;29;20470;-69
2024/03/05 03:35:20;;;;;;;2.00;0.90;;;;;;;;;;4880038;29;20052;-69
2024/03/05 03:37:46;;;;;;;1.50;1.40;;;;;;;;;;4880200;29;20029;-69
2024/03/05 03:40:20;;;;;;;1.73;1.08;;;;;;;;;;4880085;29;20252;-70
2024/03/05 03:42:46;;;;;;;1.52;1.42;;;;;;;;;;4879836;29;20364;-69
2024/03/05 03:45:13;;;;;;;1.10;0.98;;;;;;;;;;4879977;29;20024;-69
2024/03/05 03:47:38;;;;;;;1.98;0.63;;;;;;;;;;4879554;29;20025;-70
2024/03/05 03:50:03;;;;;;;0.17;0.17;;;;;;;;;;4879285;29;20029;-69
2024/03/05 03:52:29;;;;;;;0.45;0.45;;;;;;;;;;4879538;29;20033;-70
2024/03/05 03:55:01;;;;;;;0.52;0.52;;;;;;;;;;4879587;29;20413;-69
2024/03/05 03:57:34;;;;;;;0.45;0.45;;;;;;;;;;4879217;29;20112;-69
2024/03/05 04:00:00;;;;;;;0.43;0.40;;;;;;;;;;4879087;29;20033;-69
2024/03/05 04:02:25;;;;;;;0.95;0.57;;;;;;;;;;4879425;29;20023;-69
2024/03/05 04:04:50;;;;;;;0.43;0.43;;;;;;;;;;4879519;29;20025;-73
2024/03/05 04:07:19;;;;;;;0.20;0.20;;;;;;;;;;4879001;29;20033;-73
2024/03/05 04:09:45;;;;;;;1.05;0.70;;;;;;;;;;4879405;29;20059;-73
2024/03/05 04:12:12;;;;;;;1.58;1.50;;;;;;;;;;4879081;29;20069;-73
2024/03/05 04:14:38;;;;;;;1.33;1.05;;;;;;;;;;4871836;29;20024;-73
2024/03/05 04:17:04;;;;;;;10.07;1.30;;;;;;;;;;4879179;29;20103;-73
2024/03/05 04:19:30;;;;;;;0.10;0.10;;;;;;;;;;4879086;29;20525;-73
2024/03/05 04:21:56;;;;;;;1.17;0.80;;;;;;;;;;4879216;29;20100;-72
2024/03/05 04:24:21;;;;;;;0.55;0.55;;;;;;;;;;4879122;29;20043;-73
2024/03/05 04:26:48;;;;;;;1.38;1.13;;;;;;;;;;4878783;29;20593;-72
2024/03/05 04:29:16;;;;;;;0.52;0.52;;;;;;;;;;4879244;29;20021;-73
2024/03/05 04:31:42;;;;;;;0.57;0.57;;;;;;;;;;4878981;29;20085;-73
2024/03/05 04:34:07;;;;;;;2.85;1.83;;;;;;;;;;4882395;29;20028;-73
2024/03/05 04:36:35;;;;;;;0.88;0.57;;;;;;;;;;4882974;29;20381;-73
2024/03/05 04:39:01;;;;;;;4.10;1.08;;;;;;;;;;4882704;29;20033;-73
2024/03/05 04:41:26;;;;;;;0.50;0.50;;;;;;;;;;4882841;29;20025;-73
2024/03/05 04:43:51;;;;;;;0.77;0.67;;;;;;;;;;4882824;29;20054;-73
2024/03/05 04:46:16;;;;;;;3.83;1.70;;;;;;;;;;4882594;29;20049;-73
2024/03/05 04:48:41;;;;;;;0.63;0.63;;;;;;;;;;4882723;29;20104;-73
2024/03/05 04:51:08;;;;;;;0.07;0.07;;;;;;;;;;4882649;29;20478;-73
2024/03/05 04:53:35;;;;;;;1.33;1.10;;;;;;;;;;4864552;29;20082;-73
2024/03/05 04:56:01;;;;;;;0.95;0.95;;;;;;;;;;4881664;29;20363;-73
2024/03/05 04:58:34;;;;;;;0.63;0.63;;;;;;;;;;4881151;29;20100;-73
2024/03/05 05:00:59;;;;;;;0.57;0.57;;;;;;;;;;4881411;29;20037;-73
2024/03/05 05:03:25;;;;;;;1.53;0.80;;;;;;;;;;4881506;29;20032;-73
2024/03/05 05:05:50;;;;;;;0.80;0.80;;;;;;;;;;4881138;29;20401;-73
2024/03/05 05:08:15;;;;;;;0.57;0.57;;;;;;;;;;4880632;29;20024;-73
2024/03/05 05:10:40;;;;;;;0.65;0.65;;;;;;;;;;4881216;29;20299;-73
2024/03/05 05:13:06;;;;;;;0.55;0.43;;;;;;;;;;4881429;29;20043;-74
2024/03/05 05:15:31;;;;;;;0.13;0.13;;;;;;;;;;4881319;29;20028;-74
2024/03/05 05:17:58;;;;;;;0.45;0.45;;;;;;;;;;4880985;29;20475;-73
2024/03/05 05:20:23;;;;;;;0.60;0.60;;;;;;;;;;4863994;29;20052;-73
2024/03/05 05:22:48;;;;;;;0.95;0.95;;;;;;;;;;4881052;29;20071;-73
2024/03/05 05:25:19;;;;;;;0.50;0.50;;;;;;;;;;4881046;29;20033;-73
2024/03/05 05:27:44;;;;;;;0.50;0.50;;;;;;;;;;4880959;29;20021;-73
2024/03/05 05:30:10;;;;;;;0.47;0.47;;;;;;;;;;4881041;29;20021;-73
2024/03/05 05:32:35;;;;;;;3.60;0.90;;;;;;;;;;4880268;29;20094;-73
2024/03/05 05:35:03;;;;;;;0.85;0.85;;;;;;;;;;4880750;29;20017;-73
2024/03/05 05:37:28;;;;;;;0.95;0.95;;;;;;;;;;4881266;29;20017;-73
2024/03/05 05:39:53;;;;;;;0.90;0.90;;;;;;;;;;4881262;29;20047;-73
2024/03/05 05:42:18;;;;;;;0.20;0.20;;;;;;;;;;4880889;29;20252;-73
2024/03/05 05:44:45;;;;;;;1.17;1.10;;;;;;;;;;4879799;29;20418;-73
2024/03/05 05:47:11;;;;;;;0.80;0.80;;;;;;;;;;4880180;29;20284;-73
2024/03/05 05:49:36;;;;;;;0.20;0.20;;;;;;;;;;4880520;29;20043;-73
2024/03/05 05:52:02;;;;;;;0.10;0.10;;;;;;;;;;4880508;29;20047;-73
2024/03/05 05:54:29;;;;;;;0.57;0.57;;;;;;;;;;4880658;29;20374;-73
2024/03/05 05:56:55;;;;;;;0.80;0.80;;;;;;;;;;4880366;29;20495;-74
2024/03/05 05:59:20;;;;;;;0.60;0.60;;;;;;;;;;4879480;29;20045;-73
2024/03/05 06:01:45;;;;;;;0.50;0.50;;;;;;;;;;4880261;29;20029;-73
2024/03/05 06:04:11;;;;;;;1.87;1.47;;;;;;;;;;4880333;29;20145;-73
2024/03/05 06:06:36;;;;;;;0.63;0.63;;;;;;;;;;4863605;29;20303;-73
2024/03/05 06:09:02;;;;;;;2.07;1.33;;;;;;;;;;4880114;29;20025;-73
2024/03/05 06:11:27;;;;;;;0.20;0.20;;;;;;;;;;4879974;29;20465;-73
2024/03/05 06:13:52;;;;;;;0.83;0.83;;;;;;;;;;4880030;29;20032;-73
2024/03/05 06:16:19;;;;;;;0.10;0.10;;;;;;;;;;4879930;29;20028;-73
2024/03/05 06:18:44;;;;;;;1.15;0.82;;;;;;;;;;4880362;29;20283;-73
2024/03/05 06:21:09;;;;;;;0.30;0.30;;;;;;;;;;4879676;29;20478;-73
2024/03/05 06:23:37;;;;;;;0.47;0.47;;;;;;;;;;4880078;29;20125;-73
2024/03/05 06:26:02;;;;;;;1.88;0.52;;;;;;;;;;4879300;29;20439;-72
2024/03/05 06:28:28;;;;;;;1.42;1.33;;;;;;;;;;4879857;29;20025;-72
2024/03/05 06:30:53;;;;;;;0.20;0.20;;;;;;;;;;4881040;29;20021;-73
2024/03/05 06:33:19;;;;;;;0.30;0.30;;;;;;;;;;4864138;29;20033;-73
2024/03/05 06:35:44;;;;;;;0.10;0.10;;;;;;;;;;4880729;29;20268;-73
2024/03/05 06:38:09;;;;;;;3.10;0.50;;;;;;;;;;4880630;29;20077;-73
2024/03/05 06:40:37;;;;;;;0.50;0.50;;;;;;;;;;4880965;29;20346;-73
2024/03/05 06:43:03;;;;;;;0.30;0.30;;;;;;;;;;4880309;29;20260;-73
2024/03/05 06:45:29;;;;;;;0.20;0.20;;;;;;;;;;4880475;29;20017;-73
2024/03/05 06:47:56;;;;;;;0.35;0.35;;;;;;;;;;4880749;29;20013;-73
2024/03/05 06:50:23;;;;;;;0.43;0.43;;;;;;;;;;4880511;29;20108;-72
2024/03/05 06:58:19;;;;;;;1.65;0.70;;;;;;;;;;4880362;29;20056;-73
2024/03/05 07:00:46;;;;;;;0.43;0.43;;;;;;;;;;4880168;29;20033;-73
2024/03/05 07:03:12;;;;;;;1.33;1.23;;;;;;;;;;4880499;29;20025;-73
2024/03/05 07:05:37;;;;;;;0.73;0.73;;;;;;;;;;4880296;29;20037;-73
2024/03/05 07:08:02;;;;;;;0.57;0.57;;;;;;;;;;4872696;29;20025;-73
2024/03/05 07:10:28;;;;;;;1.88;1.25;;;;;;;;;;4880238;29;20035;-73
2024/03/05 07:12:55;;;;;;;0.75;0.75;;;;;;;;;;4880155;29;20032;-73
2024/03/05 07:15:21;;;;;;;0.85;0.77;;;;;;;;;;4880130;29;20025;-73
2024/03/05 07:17:46;;;;;;;1.88;1.13;;;;;;;;;;4863458;29;20449;-73
2024/03/05 07:20:24;;;;;;;0.17;0.17;;;;;;;;;;4879910;29;20053;-73
2024/03/05 07:22:50;;;;;;;0.15;0.15;;;;;;;;;;4880133;29;20025;-73
2024/03/05 07:25:15;;;;;;;0.28;0.28;;;;;;;;;;4879937;29;20035;-73
2024/03/05 07:27:42;;;;;;;0.98;0.63;;;;;;;;;;4879856;29;20032;-73
2024/03/05 07:30:11;;;;;;;0.28;0.28;;;;;;;;;;4878284;29;20025;-73
2024/03/05 07:32:37;;;;;;;0.20;0.20;;;;;;;;;;4863833;29;20082;-73
2024/03/05 07:35:02;;;;;;;0.13;0.13;;;;;;;;;;4879993;29;20017;-73
2024/03/05 07:37:27;;;;;;;0.13;0.13;;;;;;;;;;4879674;29;20409;-73
2024/03/05 07:39:53;;;;;;;0.33;0.33;;;;;;;;;;4879830;29;20112;-73
2024/03/05 07:42:18;;;;;;;1.33;1.23;;;;;;;;;;4879558;29;20025;-73
2024/03/05 07:44:43;;;;;;;0.40;0.40;;;;;;;;;;4879492;29;20534;-73
2024/03/05 07:47:08;;;;;;;1.87;1.53;;;;;;;;;;4879610;29;20025;-73
2024/03/05 07:49:33;;;;;;;0.03;0.03;;;;;;;;;;4862826;29;20021;-73
2024/03/05 07:51:59;;;;;;;0.43;0.43;;;;;;;;;;4879390;29;20386;-73
2024/03/05 07:54:24;;;;;;;0.53;0.53;;;;;;;;;;4879244;29;20081;-73
2024/03/05 07:56:49;;;;;;;0.20;0.20;;;;;;;;;;4879554;29;20035;-73
2024/03/05 07:59:15;;;;;;;0.50;0.50;;;;;;;;;;4878950;29;20049;-73
2024/03/05 08:01:40;;;;;;;0.97;0.97;;;;;;;;;;4862729;29;20400;-73
2024/03/05 08:04:05;;;;;;;0.28;0.28;;;;;;;;;;4879262;29;20025;-73
2024/03/05 08:06:30;;;;;;;0.88;0.88;;;;;;;;;;4878515;29;20028;-73
2024/03/05 08:08:56;;;;;;;0.30;0.30;;;;;;;;;;4879128;29;20013;-73
2024/03/05 08:11:23;;;;;;;0.10;0.10;;;;;;;;;;4878517;29;20021;-73
2024/03/05 08:13:48;;;;;;;0.57;0.52;;;;;;;;;;4862580;29;20032;-73
2024/03/05 08:16:13;;;;;;;1.30;1.10;;;;;;;;;;4878987;29;20029;-73
2024/03/05 08:18:39;;;;;;;2.80;0.53;;;;;;;;;;4879189;29;20073;-73
2024/03/05 08:21:04;;;;;;;0.32;0.32;;;;;;;;;;4879304;29;20260;-73
2024/03/05 08:23:29;;;;;;;0.68;0.68;;;;;;;;;;4879028;29;20506;-73
2024/03/05 08:25:55;;;;;;;2.80;1.03;;;;;;;;;;4879028;29;20029;-73
2024/03/05 08:28:20;;;;;;;0.50;0.50;;;;;;;;;;4879149;29;20260;-73
2024/03/05 08:30:45;;;;;;;0.20;0.20;;;;;;;;;;4878996;29;20271;-73
2024/03/05 08:33:10;;;;;;;0.10;0.10;;;;;;;;;;4878911;29;20309;-74
2024/03/05 08:35:36;;;;;;;1.10;0.90;;;;;;;;;;4879161;29;20382;-74
2024/03/05 08:38:01;;;;;;;1.02;0.43;;;;;;;;;;4878722;29;20049;-73
2024/03/05 08:40:27;;;;;;;0.53;0.47;;;;;;;;;;4879094;29;20025;-73
2024/03/05 08:42:55;;;;;;;0.38;0.38;;;;;;;;;;4879049;29;20025;-73
2024/03/05 08:45:22;;;;;;;0.93;0.82;;;;;;;;;;4878722;29;20069;-73
2024/03/05 08:47:49;;;;;;;0.32;0.32;;;;;;;;;;4879015;29;20017;-73
2024/03/05 08:50:14;;;;;;;1.55;0.40;;;;;;;;;;4878680;29;20100;-73
2024/03/05 08:52:40;;;;;;;0.43;0.43;;;;;;;;;;4878239;29;20047;-73
2024/03/05 08:55:08;;;;;;;2.83;0.55;;;;;;;;;;4878948;29;20029;-73
2024/03/05 08:57:33;;;;;;;0.10;0.10;;;;;;;;;;4878392;29;20413;-73
2024/03/05 09:00:02;;;;;;;0.20;0.20;;;;;;;;;;4878901;29;20025;-73
2024/03/05 09:02:27;;;;;;;0.25;0.25;;;;;;;;;;4878705;29;20035;-73
2024/03/05 09:04:52;;;;;;;0.30;0.30;;;;;;;;;;4878701;29;20028;-73
2024/03/05 09:07:18;;;;;;;0.50;0.50;;;;;;;;;;4878821;29;20044;-73
2024/03/05 09:09:44;;;;;;;1.20;0.97;;;;;;;;;;4877464;29;20644;-72
2024/03/05 09:12:12;;;;;;;2.55;0.77;;;;;;;;;;4865560;29;20024;-73
2024/03/05 09:14:37;;;;;;;5.22;0.95;;;;;;;;;;4869286;29;20014;-73
2024/03/05 09:17:02;;;;;;;0.33;0.33;;;;;;;;;;4878536;29;20108;-73
2024/03/05 09:19:28;;;;;;;0.05;0.05;;;;;;;;;;4880929;29;20260;-73
2024/03/05 09:21:53;;;;;;;0.50;0.50;;;;;;;;;;4865582;29;20081;-73
2024/03/05 09:24:18;;;;;;;0.00;0.00;;;;;;;;;;4882353;29;20312;-73
2024/03/05 09:26:43;;;;;;;0.08;0.08;;;;;;;;;;4881265;29;20025;-73
2024/03/05 09:29:09;;;;;;;0.13;0.13;;;;;;;;;;4863887;29;20021;-73
2024/03/05 09:31:35;;;;;;;1.13;0.93;;;;;;;;;;4863954;29;20081;-73
2024/03/05 09:34:00;;;;;;;1.45;1.30;;;;;;;;;;4870049;29;20473;-74
2024/03/05 09:36:26;;;;;;;0.73;0.73;;;;;;;;;;4881304;29;20040;-74
2024/03/05 09:38:52;;;;;;;0.63;0.63;;;;;;;;;;4881792;29;20469;-74
2024/03/05 09:41:17;;;;;;;3.40;0.85;;;;;;;;;;4881933;29;20108;-73
2024/03/05 09:43:45;;;;;;;0.30;0.30;;;;;;;;;;4878381;29;20133;-74
2024/03/05 09:46:11;;;;;;;0.00;0.00;;;;;;;;;;4881155;29;20673;-74
2024/03/05 09:48:39;;;;;;;0.30;0.30;;;;;;;;;;4881416;29;20390;-74
2024/03/05 09:51:10;;;;;;;0.00;0.00;;;;;;;;;;4881545;29;20025;-74
2024/03/05 09:53:36;;;;;;;0.00;0.00;;;;;;;;;;4881727;29;20029;-69
2024/03/05 09:56:04;;;;;;;0.10;0.10;;;;;;;;;;4881262;29;20387;-70
2024/03/05 09:58:37;;;;;;;0.50;0.50;;;;;;;;;;4875813;29;20049;-70
2024/03/05 10:01:03;;;;;;;0.05;0.05;;;;;;;;;;4877350;29;20032;-69
2024/03/05 10:03:29;;;;;;;0.25;0.15;;;;;;;;;;4877303;29;20428;-71
2024/03/05 10:05:54;;;;;;;0.00;0.00;;;;;;;;;;4877124;29;20032;-69
2024/03/05 10:08:19;;;;;;;0.50;0.50;;;;;;;;;;4861696;29;20017;-69
2024/03/05 10:10:45;;;;;;;0.47;0.37;;;;;;;;;;4879435;29;20054;-69
2024/03/05 10:13:11;;;;;;;0.05;0.05;;;;;;;;;;4873883;29;20500;-70
2024/03/05 10:15:38;;;;;;;0.68;0.68;;;;;;;;;;4879019;29;20021;-69
2024/03/05 10:18:03;;;;;;;0.52;0.50;;;;;;;;;;4880605;29;20025;-69
2024/03/05 10:20:32;;;;;;;0.20;0.20;;;;;;;;;;4874571;29;20033;-69
2024/03/05 10:22:58;;;;;;;0.13;0.13;;;;;;;;;;4880926;29;20035;-69
2024/03/05 10:25:24;;;;;;;0.15;0.15;;;;;;;;;;4880705;29;20017;-69
2024/03/05 10:27:52;;;;;;;0.30;0.30;;;;;;;;;;4879470;29;20047;-69
2024/03/05 10:30:22;;;;;;;0.22;0.22;;;;;;;;;;4880136;29;20032;-69
2024/03/05 10:32:55;;;;;;;0.93;0.90;;;;;;;;;;4880176;29;20474;-69
2024/03/05 10:35:20;;;;;;;0.47;0.47;;;;;;;;;;4880560;29;20077;-69
2024/03/05 10:38:09;;;;;;;0.30;0.30;;;;;;;;;;4879826;29;20395;-70
2024/03/05 10:40:35;;;;;;;0.20;0.20;;;;;;;;;;4880277;29;20542;-70
2024/03/05 10:43:02;;;;;;;0.00;0.00;;;;;;;;;;4876197;29;20029;-69
2024/03/05 10:45:27;;;;;;;0.20;0.20;;;;;;;;;;4880225;29;20021;-70
2024/03/05 10:47:53;;;;;;;0.30;0.30;;;;;;;;;;4880167;29;20355;-70
2024/03/05 10:50:18;;;;;;;0.20;0.20;;;;;;;;;;4880075;29;20470;-69
2024/03/05 10:52:45;;;;;;;0.00;0.00;;;;;;;;;;4879949;29;20041;-69
2024/03/05 10:55:11;;;;;;;0.10;0.10;;;;;;;;;;4863021;29;20382;-70
2024/03/05 10:58:13;;;;;;;0.20;0.20;;;;;;;;;;4878957;29;20025;-69
2024/03/05 11:00:26;;;;;;;0.00;0.00;;;;;;;;;;4879559;29;20044;-70
2024/03/05 11:02:57;;;;;;;0.47;0.20;;;;;;;;;;4879913;29;20096;-69
2024/03/05 11:05:23;;;;;;;0.57;0.57;;;;;;;;;;4879643;29;20276;-70
2024/03/05 11:07:49;;;;;;;1.25;0.73;;;;;;;;;;4879523;29;20466;-70
2024/03/05 11:10:15;;;;;;;0.65;0.20;;;;;;;;;;4879851;29;20067;-76
2024/03/05 11:12:42;;;;;;;0.08;0.08;;;;;;;;;;4877936;29;20025;-77
2024/03/05 11:15:12;;;;;;;0.50;0.50;;;;;;;;;;4880055;29;20049;-77
2024/03/05 11:17:37;;;;;;;1.00;0.30;;;;;;;;;;4880030;29;20100;-77
2024/03/05 11:20:03;;;;;;;1.65;0.73;;;;;;;;;;4862977;29;20119;-69
2024/03/05 11:22:29;;;;;;;0.13;0.13;;;;;;;;;;4879411;29;20487;-70
2024/03/05 11:25:01;;;;;;;0.22;0.22;;;;;;;;;;4879648;29;20029;-70
2024/03/05 11:27:30;;;;;;;0.13;0.13;;;;;;;;;;4879330;29;20085;-70
2024/03/05 11:30:12;;;;;;;0.47;0.45;;;;;;;;;;4879790;29;20355;-70
2024/03/05 11:32:37;;;;;;;0.00;0.00;;;;;;;;;;4857276;29;20052;-70
2024/03/05 11:35:03;;;;;;;0.13;0.13;;;;;;;;;;4879059;29;20057;-67
2024/03/05 11:37:28;;;;;;;0.32;0.30;;;;;;;;;;4879571;29;20055;-67
2024/03/05 11:39:54;;;;;;;0.13;0.13;;;;;;;;;;4879446;29;20021;-67
2024/03/05 11:42:20;;;;;;;0.00;0.00;;;;;;;;;;4877716;29;20509;-67
2024/03/05 11:44:49;;;;;;;0.00;0.00;;;;;;;;;;4879226;29;20414;-67
2024/03/05 11:47:21;;;;;;;1.13;0.82;;;;;;;;;;4878970;29;20056;-66
2024/03/05 11:49:47;;;;;;;0.20;0.13;;;;;;;;;;4855177;29;20065;-67
2024/03/05 11:52:13;;;;;;;0.00;0.00;;;;;;;;;;4879405;29;20029;-67
2024/03/05 11:54:38;;;;;;;0.10;0.10;;;;;;;;;;4878830;29;20037;-66
2024/03/05 11:57:03;;;;;;;0.03;0.03;;;;;;;;;;4878585;29;20027;-67
2024/03/05 11:59:39;;;;;;;0.00;0.00;;;;;;;;;;4878280;29;20378;-67
2024/03/05 12:02:08;;;;;;;0.10;0.10;;;;;;;;;;4879054;29;20024;-67
2024/03/05 12:04:34;;;;;;;0.00;0.00;;;;;;;;;;4878762;29;20035;-67
2024/03/05 12:07:07;;;;;;;0.15;0.15;;;;;;;;;;4878840;29;20041;-67
2024/03/05 12:09:32;;;;;;;0.28;0.28;;;;;;;;;;4878809;29;20043;-67
2024/03/05 12:12:09;;;;;;;0.50;0.43;;;;;;;;;;4874751;29;20516;-67
2024/03/05 12:14:55;;;;;;;1.17;0.55;;;;;;;;;;4878702;29;20025;-66
2024/03/05 12:17:24;;;;;;;0.10;0.10;;;;;;;;;;4878041;29;20489;-66
2024/03/05 12:20:07;;;;;;;0.30;0.28;;;;;;;;;;4878762;29;20108;-66
2024/03/05 12:22:33;;;;;;;0.08;0.08;;;;;;;;;;4871420;29;20438;-66
2024/03/05 12:24:58;;;;;;;0.10;0.10;;;;;;;;;;4878619;29;20111;-66
2024/03/05 12:27:24;;;;;;;0.00;0.00;;;;;;;;;;4877860;29;20398;-66
2024/03/05 12:29:51;;;;;;;0.00;0.00;;;;;;;;;;4878450;29;20021;-66
2024/03/05 12:32:18;;;;;;;0.00;0.00;;;;;;;;;;4878868;29;20018;-66
2024/03/05 12:34:43;;;;;;;0.25;0.25;;;;;;;;;;4878538;29;20816;-66
2024/03/05 12:37:10;;;;;;;0.17;0.17;;;;;;;;;;4878934;29;20037;-66
2024/03/05 12:39:35;;;;;;;0.32;0.32;;;;;;;;;;4878198;29;20033;-66
2024/03/05 12:42:01;;;;;;;0.40;0.40;;;;;;;;;;4876664;29;20029;-66
2024/03/05 12:44:28;;;;;;;0.10;0.10;;;;;;;;;;4878754;29;20031;-66
2024/03/05 12:47:04;;;;;;;0.32;0.32;;;;;;;;;;4878044;29;20033;-66
2024/03/05 12:49:29;;;;;;;0.60;0.60;;;;;;;;;;4878227;29;20060;-66
2024/03/05 12:52:01;;;;;;;0.10;0.10;;;;;;;;;;4878177;29;20053;-66
2024/03/05 12:54:27;;;;;;;;;;;;;;;;;;4881373;29;20099;-66
2024/03/05 12:56:52;;;;;;;0.00;0.00;;;;;;;;;;4881736;29;19912;-66
2024/03/05 12:59:18;;;;;;;0.17;0.17;;;;;;;;;;4881649;29;20053;-66
2024/03/05 13:01:43;;;;;;;0.00;0.00;;;;;;;;;;4882141;29;20025;-66
2024/03/05 13:04:09;;;;;;;0.20;0.20;;;;;;;;;;4881540;29;20409;-66
2024/03/05 13:06:34;;;;;;;0.07;0.07;;;;;;;;;;4881675;29;20021;-66
2024/03/05 13:08:59;;;;;;;0.28;0.28;;;;;;;;;;4881866;29;20339;-66
2024/03/05 13:11:24;;;;;;;0.00;0.00;;;;;;;;;;4881267;29;20024;-66
2024/03/05 13:13:50;;;;;;;0.10;0.10;;;;;;;;;;4874490;29;20264;-66
2024/03/05 13:16:15;;;;;;;0.00;0.00;;;;;;;;;;4881638;29;20397;-66
2024/03/05 13:18:40;;;;;;;0.00;0.00;;;;;;;;;;4881350;29;20075;-66
2024/03/05 13:21:05;;;;;;;0.00;0.00;;;;;;;;;;4881979;29;20112;-66
2024/03/05 13:23:31;;;;;;;0.00;0.00;;;;;;;;;;4882346;29;20431;-66
2024/03/05 13:25:57;;;;;;;0.00;0.00;;;;;;;;;;4881353;29;20025;-66
2024/03/05 13:28:24;;;;;;;0.10;0.10;;;;;;;;;;4882298;29;20029;-66
2024/03/05 13:30:49;;;;;;;0.08;0.08;;;;;;;;;;4880968;29;20033;-66
2024/03/05 13:33:15;;;;;;;0.20;0.20;;;;;;;;;;4881573;29;20025;-66
2024/03/05 13:35:40;;;;;;;0.00;0.00;;;;;;;;;;4881578;29;20029;-66
2024/03/05 13:38:07;;;;;;;0.65;0.38;;;;;;;;;;4881408;29;20045;-66
2024/03/05 13:40:32;;;;;;;0.47;0.13;;;;;;;;;;4880589;29;20031;-66
2024/03/05 13:42:58;;;;;;;0.38;0.35;;;;;;;;;;4876833;29;20028;-66
2024/03/05 13:45:23;;;;;;;0.00;0.00;;;;;;;;;;4881206;29;20482;-66
2024/03/05 13:47:48;;;;;;;0.20;0.20;;;;;;;;;;4881255;29;20029;-66
2024/03/05 13:50:15;;;;;;;0.00;0.00;;;;;;;;;;4881158;29;20029;-66
2024/03/05 13:52:41;;;;;;;0.00;0.00;;;;;;;;;;4881192;29;20048;-66
2024/03/05 13:55:07;;;;;;;0.40;0.30;;;;;;;;;;4880582;29;20442;-66
2024/03/05 13:57:32;;;;;;;0.15;0.15;;;;;;;;;;4880849;29;20052;-66
2024/03/05 13:59:58;;;;;;;0.30;0.27;;;;;;;;;;4880732;29;20040;-66
2024/03/05 14:02:24;;;;;;;0.03;0.03;;;;;;;;;;4881151;29;20274;-66
2024/03/05 14:04:49;;;;;;;0.10;0.10;;;;;;;;;;4880058;29;20041;-66
2024/03/05 14:07:15;;;;;;;0.00;0.00;;;;;;;;;;4881104;29;20056;-66
2024/03/05 14:09:43;;;;;;;0.28;0.28;;;;;;;;;;4879954;29;20104;-66
2024/03/05 14:12:10;;;;;;;0.30;0.30;;;;;;;;;;4873580;29;20021;-66
2024/03/05 14:14:35;;;;;;;0.05;0.05;;;;;;;;;;4880602;29;20096;-66
2024/03/05 14:17:00;;;;;;;3.10;0.37;;;;;;;;;;4880559;29;20233;-66
2024/03/05 14:19:25;;;;;;;0.47;0.40;;;;;;;;;;4880786;29;20306;-66
2024/03/05 14:21:52;;;;;;;0.10;0.10;;;;;;;;;;4880499;29;20021;-66
2024/03/05 14:24:17;;;;;;;0.00;0.00;;;;;;;;;;4880253;29;20040;-66
2024/03/05 14:26:43;;;;;;;0.00;0.00;;;;;;;;;;4880388;29;20025;-66
2024/03/05 14:29:08;;;;;;;0.00;0.00;;;;;;;;;;4880728;29;20056;-66
2024/03/05 14:31:33;;;;;;;0.22;0.22;;;;;;;;;;4880356;29;20363;-66
2024/03/05 14:33:58;;;;;;;0.10;0.10;;;;;;;;;;4880403;29;20090;-67
2024/03/05 14:36:25;;;;;;;0.00;0.00;;;;;;;;;;4880686;29;20021;-67
2024/03/05 14:38:56;;;;;;;0.00;0.00;;;;;;;;;;4880247;29;20260;-67
2024/03/05 14:41:22;;;;;;;0.03;0.03;;;;;;;;;;4880384;29;20033;-67
2024/03/05 14:43:48;;;;;;;0.00;0.00;;;;;;;;;;4879884;29;20033;-67